createdAt,value
2023-04-07T00:00:19.178Z,6.93
2023-04-07T00:01:21.737Z,7.70
2023-04-07T00:02:24.280Z,8.02
2023-04-07T00:03:26.778Z,6.60
2023-04-07T00:04:29.267Z,6.85
2023-04-07T00:05:31.747Z,6.60
2023-04-07T00:06:34.008Z,7.82
2023-04-07T00:07:44.898Z,7.57
2023-04-07T00:08:51.289Z,7.05
2023-04-07T00:09:53.513Z,6.80
2023-04-07T00:10:55.904Z,6.97
2023-04-07T00:11:58.226Z,6.65
2023-04-07T00:13:00.686Z,5.57
2023-04-07T00:14:03.466Z,6.70
2023-04-07T00:15:06.225Z,7.38
2023-04-07T00:16:08.671Z,6.00
2023-04-07T00:17:10.956Z,6.47
2023-04-07T00:18:13.199Z,5.90
2023-04-07T00:19:15.538Z,6.35
2023-04-07T00:20:17.977Z,5.47
2023-04-07T00:21:20.333Z,6.13
2023-04-07T00:22:22.622Z,5.47
2023-04-07T00:23:24.869Z,5.88
2023-04-07T00:24:34.203Z,5.35
2023-04-07T00:25:36.780Z,6.03
2023-04-07T00:26:39.053Z,5.95
2023-04-07T00:27:41.559Z,5.13
2023-04-07T00:28:43.847Z,5.40
2023-04-07T00:29:46.980Z,5.70
2023-04-07T00:30:49.258Z,5.53
2023-04-07T00:31:51.582Z,6.38
2023-04-07T00:32:54.010Z,5.85
2023-04-07T00:33:57.818Z,5.05
2023-04-07T00:35:02.350Z,5.35
2023-04-07T00:36:05.378Z,5.43
2023-04-07T00:37:07.688Z,4.43
2023-04-07T00:38:09.960Z,4.82
2023-04-07T00:39:12.225Z,5.00
2023-04-07T00:40:14.537Z,5.20
2023-04-07T00:41:17.018Z,5.13
2023-04-07T00:42:19.766Z,4.95
2023-04-07T00:43:22.133Z,5.30
2023-04-07T00:44:24.422Z,5.00
2023-04-07T00:45:26.837Z,4.80
2023-04-07T00:46:30.443Z,5.03
2023-04-07T00:47:32.895Z,5.15
2023-04-07T00:48:37.135Z,4.95
2023-04-07T00:49:39.549Z,4.40
2023-04-07T00:50:41.942Z,4.95
2023-04-07T00:51:45.966Z,4.90
2023-04-07T00:52:48.416Z,6.00
2023-04-07T00:53:50.800Z,5.47
2023-04-07T00:54:54.874Z,6.03
2023-04-07T00:55:57.238Z,5.65
2023-04-07T00:56:59.609Z,5.68
2023-04-07T00:58:01.987Z,6.20
2023-04-07T00:59:07.310Z,5.75
2023-04-07T01:00:10.235Z,5.28
2023-04-07T01:01:58.925Z,6.47
2023-04-07T01:03:09.578Z,5.53
2023-04-07T01:04:34.188Z,5.32
2023-04-07T01:05:50.727Z,5.65
2023-04-07T01:06:57.497Z,6.15
2023-04-07T01:08:17.085Z,5.50
2023-04-07T01:09:25.539Z,7.03
2023-04-07T01:10:41.774Z,6.32
2023-04-07T01:12:33.140Z,5.85
2023-04-07T01:13:51.345Z,6.30
2023-04-07T01:15:12.691Z,6.90
2023-04-07T01:16:36.099Z,6.35
2023-04-07T01:17:45.521Z,7.22
2023-04-07T01:18:50.987Z,6.75
2023-04-07T01:19:59.622Z,7.10
2023-04-07T01:21:09.518Z,7.53
2023-04-07T01:22:15.483Z,7.60
2023-04-07T01:23:51.928Z,7.90
2023-04-07T01:25:18.164Z,7.00
2023-04-07T01:26:28.020Z,7.85
2023-04-07T01:27:47.555Z,7.30
2023-04-07T01:29:01.455Z,7.07
2023-04-07T01:30:07.074Z,7.63
2023-04-07T01:31:12.288Z,7.35
2023-04-07T01:32:16.074Z,7.43
2023-04-07T01:33:19.703Z,7.57
2023-04-07T01:34:26.063Z,9.27
2023-04-07T01:35:32.446Z,8.88
2023-04-07T01:36:34.985Z,8.70
2023-04-07T01:37:38.687Z,7.82
2023-04-07T01:38:42.134Z,8.23
2023-04-07T01:39:44.595Z,7.90
2023-04-07T01:40:47.977Z,8.30
2023-04-07T01:41:53.170Z,8.20
2023-04-07T01:42:57.433Z,7.80
2023-04-07T01:44:02.256Z,8.65
2023-04-07T01:45:06.058Z,8.15
2023-04-07T01:46:09.021Z,8.13
2023-04-07T01:47:12.275Z,8.65
2023-04-07T01:48:16.140Z,9.10
2023-04-07T01:49:19.421Z,7.72
2023-04-07T01:50:22.592Z,7.85
2023-04-07T01:51:26.641Z,7.88
2023-04-07T01:52:29.741Z,7.68
2023-04-07T01:53:32.362Z,7.70
2023-04-07T01:54:35.502Z,6.95
2023-04-07T01:55:38.509Z,7.20
2023-04-07T01:56:45.103Z,7.00
2023-04-07T01:57:47.492Z,6.57
2023-04-07T01:58:53.299Z,7.05
2023-04-07T01:59:57.642Z,7.43
2023-04-07T02:01:01.944Z,7.22
2023-04-07T02:02:04.446Z,8.63
2023-04-07T02:03:23.762Z,8.73
2023-04-07T02:04:32.064Z,7.03
2023-04-07T02:05:36.940Z,8.15
2023-04-07T02:06:44.624Z,8.10
2023-04-07T02:07:55.885Z,7.10
2023-04-07T02:09:04.530Z,6.82
2023-04-07T02:10:11.715Z,7.20
2023-04-07T02:11:17.303Z,7.65
2023-04-07T02:12:20.625Z,7.50
2023-04-07T02:13:37.538Z,7.18
2023-04-07T02:14:40.459Z,6.57
2023-04-07T02:15:46.641Z,6.90
2023-04-07T02:16:50.164Z,7.45
2023-04-07T02:17:54.638Z,6.57
2023-04-07T02:18:58.770Z,7.00
2023-04-07T02:20:02.476Z,6.95
2023-04-07T02:21:05.886Z,6.50
2023-04-07T02:22:09.202Z,6.50
2023-04-07T02:23:11.775Z,7.15
2023-04-07T02:24:14.062Z,8.15
2023-04-07T02:25:27.880Z,7.75
2023-04-07T02:26:35.466Z,7.35
2023-04-07T02:27:37.863Z,7.38
2023-04-07T02:28:40.249Z,6.72
2023-04-07T02:29:42.614Z,6.50
2023-04-07T02:30:44.861Z,6.05
2023-04-07T02:31:47.363Z,6.85
2023-04-07T02:32:49.769Z,6.15
2023-04-07T02:33:52.118Z,7.05
2023-04-07T02:34:54.580Z,7.05
2023-04-07T02:35:56.811Z,6.00
2023-04-07T02:36:59.081Z,5.93
2023-04-07T02:38:02.941Z,6.50
2023-04-07T02:39:05.579Z,6.40
2023-04-07T02:40:08.775Z,6.70
2023-04-07T02:41:11.281Z,6.15
2023-04-07T02:42:13.577Z,6.90
2023-04-07T02:43:17.714Z,7.18
2023-04-07T02:44:19.991Z,6.50
2023-04-07T02:45:22.307Z,7.15
2023-04-07T02:46:24.700Z,6.30
2023-04-07T02:47:27.051Z,5.97
2023-04-07T02:48:29.289Z,6.57
2023-04-07T02:49:31.533Z,6.57
2023-04-07T02:50:34.889Z,6.45
2023-04-07T02:51:37.254Z,6.65
2023-04-07T02:52:39.545Z,6.25
2023-04-07T02:53:47.198Z,6.80
2023-04-07T02:54:49.455Z,7.15
2023-04-07T02:55:54.852Z,6.80
2023-04-07T02:56:57.303Z,6.30
2023-04-07T02:58:00.748Z,6.47
2023-04-07T02:59:12.474Z,7.13
2023-04-07T03:00:18.731Z,6.45
2023-04-07T03:01:34.993Z,5.65
2023-04-07T03:02:37.582Z,6.30
2023-04-07T03:03:42.372Z,5.90
2023-04-07T03:04:52.943Z,6.07
2023-04-07T03:05:58.130Z,6.53
2023-04-07T03:07:00.672Z,5.93
2023-04-07T03:08:05.208Z,6.22
2023-04-07T03:09:07.994Z,6.07
2023-04-07T03:10:10.632Z,5.53
2023-04-07T03:11:12.980Z,6.20
2023-04-07T03:12:15.266Z,6.40
2023-04-07T03:13:19.753Z,5.57
2023-04-07T03:14:22.153Z,6.68
2023-04-07T03:15:26.122Z,7.32
2023-04-07T03:16:28.448Z,6.75
2023-04-07T03:17:37.371Z,7.68
2023-04-07T03:18:40.459Z,6.97
2023-04-07T03:19:42.756Z,8.18
2023-04-07T03:20:47.616Z,7.68
2023-04-07T03:21:50.147Z,8.25
2023-04-07T03:22:52.450Z,7.75
2023-04-07T03:24:00.531Z,8.68
2023-04-07T03:25:02.859Z,8.10
2023-04-07T03:26:05.380Z,8.18
2023-04-07T03:27:11.191Z,7.10
2023-04-07T03:28:17.840Z,8.23
2023-04-07T03:29:20.132Z,7.90
2023-04-07T03:30:22.474Z,8.23
2023-04-07T03:31:24.984Z,7.53
2023-04-07T03:32:28.886Z,7.35
2023-04-07T03:33:32.017Z,7.00
2023-04-07T03:34:34.577Z,6.53
2023-04-07T03:35:36.940Z,7.43
2023-04-07T03:36:39.312Z,7.13
2023-04-07T03:37:41.667Z,8.05
2023-04-07T03:38:49.074Z,7.30
2023-04-07T03:39:53.255Z,7.38
2023-04-07T03:41:00.793Z,7.78
2023-04-07T03:42:03.613Z,8.18
2023-04-07T03:43:12.587Z,7.30
2023-04-07T03:44:15.564Z,8.25
2023-04-07T03:45:18.104Z,6.38
2023-04-07T03:46:26.875Z,7.20
2023-04-07T03:47:29.542Z,7.32
2023-04-07T03:48:36.164Z,7.22
2023-04-07T03:49:46.409Z,7.43
2023-04-07T03:50:48.734Z,7.47
2023-04-07T03:51:53.655Z,7.63
2023-04-07T03:52:55.916Z,7.60
2023-04-07T03:54:04.423Z,6.97
2023-04-07T03:55:11.148Z,7.57
2023-04-07T03:56:13.510Z,7.53
2023-04-07T03:57:22.281Z,7.07
2023-04-07T03:58:26.376Z,6.63
2023-04-07T03:59:28.869Z,7.30
2023-04-07T04:00:36.760Z,7.20
2023-04-07T04:01:43.358Z,6.90
2023-04-07T04:02:50.638Z,7.13
2023-04-07T04:03:55.917Z,7.78
2023-04-07T04:05:06.498Z,7.78
2023-04-07T04:06:08.842Z,7.97
2023-04-07T04:07:11.861Z,8.20
2023-04-07T04:08:18.980Z,6.82
2023-04-07T04:09:21.464Z,8.68
2023-04-07T04:10:24.877Z,8.35
2023-04-07T04:11:29.107Z,8.40
2023-04-07T04:12:35.346Z,9.52
2023-04-07T04:13:42.835Z,8.75
2023-04-07T04:14:45.086Z,9.35
2023-04-07T04:15:49.450Z,9.43
2023-04-07T04:16:54.068Z,9.52
2023-04-07T04:18:19.020Z,8.90
2023-04-07T04:19:21.490Z,8.05
2023-04-07T04:20:24.105Z,8.55
2023-04-07T04:21:27.354Z,8.73
2023-04-07T04:22:29.806Z,8.02
2023-04-07T04:23:33.782Z,8.02
2023-04-07T04:24:36.265Z,8.82
2023-04-07T04:25:40.973Z,8.60
2023-04-07T04:26:46.251Z,8.05
2023-04-07T04:27:49.855Z,7.35
2023-04-07T04:28:56.019Z,8.02
2023-04-07T04:29:58.532Z,8.23
2023-04-07T04:31:12.178Z,7.65
2023-04-07T04:32:18.400Z,8.02
2023-04-07T04:33:20.911Z,8.25
2023-04-07T04:34:29.044Z,8.70
2023-04-07T04:35:32.047Z,8.10
2023-04-07T04:36:42.901Z,8.30
2023-04-07T04:37:45.407Z,9.15
2023-04-07T04:38:49.272Z,9.10
2023-04-07T04:39:54.603Z,10.73
2023-04-07T04:40:58.098Z,10.40
2023-04-07T04:42:06.509Z,11.70
2023-04-07T04:43:11.433Z,12.32
2023-04-07T04:44:16.070Z,11.10
2023-04-07T04:45:19.579Z,11.45
2023-04-07T04:46:24.375Z,11.73
2023-04-07T04:47:27.295Z,11.13
2023-04-07T04:48:29.840Z,10.35
2023-04-07T04:49:32.875Z,10.25
2023-04-07T04:50:37.800Z,10.13
2023-04-07T04:51:45.883Z,9.48
2023-04-07T04:52:51.775Z,10.65
2023-04-07T04:53:57.776Z,10.55
2023-04-07T04:55:02.243Z,11.40
2023-04-07T04:56:05.473Z,10.77
2023-04-07T04:57:20.331Z,11.50
2023-04-07T04:58:23.363Z,11.48
2023-04-07T04:59:28.748Z,12.27
2023-04-07T05:00:37.501Z,17.88
2023-04-07T05:01:43.268Z,14.32
2023-04-07T05:02:49.671Z,15.38
2023-04-07T05:03:52.380Z,13.65
2023-04-07T05:04:59.337Z,15.13
2023-04-07T05:06:04.496Z,15.25
2023-04-07T05:07:07.402Z,16.95
2023-04-07T05:08:11.323Z,15.98
2023-04-07T05:09:15.060Z,15.15
2023-04-07T05:10:20.456Z,15.02
2023-04-07T05:11:25.933Z,16.02
2023-04-07T05:12:30.629Z,14.15
2023-04-07T05:13:36.573Z,12.63
2023-04-07T05:14:39.926Z,13.40
2023-04-07T05:15:43.942Z,13.23
2023-04-07T05:16:48.597Z,12.15
2023-04-07T05:17:56.285Z,12.80
2023-04-07T05:19:02.434Z,11.88
2023-04-07T05:20:06.697Z,12.15
2023-04-07T05:21:12.559Z,11.15
2023-04-07T05:22:15.990Z,11.85
2023-04-07T05:23:23.618Z,11.68
2023-04-07T05:24:28.760Z,10.48
2023-04-07T05:25:34.825Z,11.30
2023-04-07T05:26:40.582Z,10.27
2023-04-07T05:27:43.773Z,11.13
2023-04-07T05:28:50.104Z,11.18
2023-04-07T05:29:55.951Z,9.63
2023-04-07T05:31:03.336Z,9.00
2023-04-07T05:32:08.331Z,9.68
2023-04-07T05:33:11.549Z,9.48
2023-04-07T05:34:28.567Z,10.50
2023-04-07T05:35:32.221Z,9.63
2023-04-07T05:36:35.353Z,11.63
2023-04-07T05:37:37.710Z,12.90
2023-04-07T05:38:41.978Z,13.38
2023-04-07T05:39:49.564Z,12.75
2023-04-07T05:40:51.884Z,13.07
2023-04-07T05:41:59.501Z,13.00
2023-04-07T05:43:02.806Z,11.23
2023-04-07T05:44:07.109Z,14.13
2023-04-07T05:45:13.564Z,11.25
2023-04-07T05:46:18.910Z,11.85
2023-04-07T05:47:27.180Z,11.57
2023-04-07T05:48:30.492Z,11.73
2023-04-07T05:49:32.741Z,10.60
2023-04-07T05:50:39.391Z,11.20
2023-04-07T05:51:47.502Z,12.10
2023-04-07T05:52:51.442Z,10.70
2023-04-07T05:54:01.642Z,9.52
2023-04-07T05:55:04.208Z,8.57
2023-04-07T05:56:07.256Z,9.90
2023-04-07T05:57:22.757Z,9.93
2023-04-07T05:58:26.546Z,8.63
2023-04-07T05:59:30.831Z,8.70
2023-04-07T06:00:33.142Z,8.90
2023-04-07T06:01:43.022Z,10.05
2023-04-07T06:02:46.686Z,8.70
2023-04-07T06:03:53.702Z,7.80
2023-04-07T06:04:59.364Z,7.25
2023-04-07T06:06:01.815Z,9.63
2023-04-07T06:07:04.554Z,9.20
2023-04-07T06:08:06.908Z,8.77
2023-04-07T06:09:09.150Z,8.35
2023-04-07T06:10:11.548Z,8.38
2023-04-07T06:11:14.069Z,8.10
2023-04-07T06:12:17.061Z,8.63
2023-04-07T06:13:19.358Z,8.50
2023-04-07T06:14:21.673Z,8.60
2023-04-07T06:15:24.403Z,8.18
2023-04-07T06:16:26.770Z,10.95
2023-04-07T06:17:29.162Z,9.65
2023-04-07T06:18:31.435Z,9.68
2023-04-07T06:19:34.320Z,9.15
2023-04-07T06:20:36.777Z,9.70
2023-04-07T06:21:40.132Z,9.85
2023-04-07T06:22:42.398Z,8.70
2023-04-07T06:23:44.818Z,8.55
2023-04-07T06:24:47.225Z,7.72
2023-04-07T06:25:53.318Z,7.85
2023-04-07T06:26:57.005Z,9.15
2023-04-07T06:27:59.330Z,10.27
2023-04-07T06:29:01.755Z,8.82
2023-04-07T06:30:04.474Z,8.88
2023-04-07T06:31:08.821Z,8.40
2023-04-07T06:32:12.676Z,9.07
2023-04-07T06:33:15.009Z,10.20
2023-04-07T06:34:17.468Z,10.02
2023-04-07T06:35:19.751Z,9.30
2023-04-07T06:36:23.477Z,8.43
2023-04-07T06:37:26.224Z,10.55
2023-04-07T06:38:29.840Z,8.48
2023-04-07T06:39:32.261Z,8.35
2023-04-07T06:40:34.612Z,9.20
2023-04-07T06:41:38.903Z,8.20
2023-04-07T06:42:41.371Z,7.63
2023-04-07T06:43:52.792Z,7.28
2023-04-07T06:44:55.019Z,7.10
2023-04-07T06:45:57.430Z,7.25
2023-04-07T06:46:59.809Z,7.32
2023-04-07T06:48:02.134Z,7.20
2023-04-07T06:49:05.180Z,6.85
2023-04-07T06:50:08.049Z,8.15
2023-04-07T06:51:10.416Z,7.15
2023-04-07T06:52:12.853Z,7.25
2023-04-07T06:53:15.502Z,6.85
2023-04-07T06:54:18.037Z,11.00
2023-04-07T06:55:20.316Z,7.93
2023-04-07T06:56:23.336Z,8.13
2023-04-07T06:57:25.654Z,7.47
2023-04-07T06:58:27.897Z,7.07
2023-04-07T06:59:30.868Z,7.25
2023-04-07T07:00:33.126Z,8.15
2023-04-07T07:01:35.539Z,6.82
2023-04-07T07:02:38.190Z,7.38
2023-04-07T07:03:40.884Z,7.60
2023-04-07T07:04:43.149Z,7.95
2023-04-07T07:05:45.519Z,7.05
2023-04-07T07:06:47.829Z,6.50
2023-04-07T07:07:50.753Z,6.35
2023-04-07T07:08:53.695Z,6.75
2023-04-07T07:09:56.162Z,7.40
2023-04-07T07:10:58.471Z,7.20
2023-04-07T07:12:04.013Z,6.65
2023-04-07T07:13:06.639Z,6.78
2023-04-07T07:14:08.957Z,5.95
2023-04-07T07:15:11.449Z,7.32
2023-04-07T07:16:13.941Z,6.95
2023-04-07T07:17:16.538Z,7.07
2023-04-07T07:18:19.675Z,7.10
2023-04-07T07:19:22.127Z,7.75
2023-04-07T07:20:26.091Z,10.25
2023-04-07T07:21:28.467Z,10.02
2023-04-07T07:22:30.841Z,10.07
2023-04-07T07:23:34.066Z,14.43
2023-04-07T07:24:36.701Z,37.47
2023-04-07T07:25:39.028Z,26.10
2023-04-07T07:26:42.917Z,20.73
2023-04-07T07:27:46.493Z,17.02
2023-04-07T07:28:48.891Z,14.40
2023-04-07T07:29:51.215Z,13.95
2023-04-07T07:30:53.460Z,18.00
2023-04-07T07:31:56.314Z,16.45
2023-04-07T07:32:58.809Z,16.73
2023-04-07T07:34:01.276Z,15.35
2023-04-07T07:35:03.623Z,13.57
2023-04-07T07:36:06.499Z,11.90
2023-04-07T07:37:08.943Z,14.35
2023-04-07T07:38:12.298Z,13.75
2023-04-07T07:39:14.792Z,17.05
2023-04-07T07:40:17.200Z,14.52
2023-04-07T07:41:19.505Z,34.65
2023-04-07T07:42:21.884Z,25.30
2023-04-07T07:43:24.145Z,21.92
2023-04-07T07:44:26.516Z,17.95
2023-04-07T07:45:28.881Z,16.02
2023-04-07T07:46:31.279Z,16.70
2023-04-07T07:47:33.876Z,14.35
2023-04-07T07:48:36.269Z,13.15
2023-04-07T07:49:38.833Z,12.30
2023-04-07T07:50:41.157Z,13.23
2023-04-07T07:51:43.688Z,14.35
2023-04-07T07:52:46.262Z,13.45
2023-04-07T07:53:48.859Z,13.02
2023-04-07T07:54:51.848Z,16.60
2023-04-07T07:55:56.048Z,14.25
2023-04-07T07:56:58.349Z,14.15
2023-04-07T07:58:00.921Z,14.27
2023-04-07T07:59:06.413Z,13.00
2023-04-07T08:00:09.355Z,13.15
2023-04-07T08:01:17.626Z,13.13
